Time;durP1;ratioP1;P1;durP2;ratioP2;P2;SDS_P1;SDS_P2;PMS_P1;PMS_P2;Temp;Humidity;BMP_temperature;BMP_pressure;BME280_temperature;BME280_humidity;BME280_pressure;Samples;Min_cycle;Max_cycle;Signal;HPM_P1;HPM_P2
2023/06/21 00:01:35;;;;;;;14.38;10.70;;;19.30;99.90;;;;;;5032585;28;20048;-76
2023/06/21 00:04:01;;;;;;;14.90;11.68;;;19.30;99.90;;;;;;5032509;28;20045;-76
2023/06/21 00:06:34;;;;;;;13.95;11.63;;;19.20;99.90;;;;;;5032261;28;20507;-76
2023/06/21 00:09:00;;;;;;;13.07;11.43;;;19.30;99.90;;;;;;5032231;28;20045;-76
2023/06/21 00:11:26;;;;;;;15.07;12.27;;;19.20;99.90;;;;;;5031983;28;20470;-76
2023/06/21 00:13:54;;;;;;;15.48;12.35;;;19.30;99.90;;;;;;5032719;28;20056;-75
2023/06/21 00:16:20;;;;;;;12.48;11.15;;;19.30;99.90;;;;;;5032302;28;20056;-76
2023/06/21 00:18:46;;;;;;;22.10;12.82;;;19.30;99.90;;;;;;5050559;28;20242;-76
2023/06/21 00:21:13;;;;;;;14.90;11.70;;;19.30;99.90;;;;;;5050050;28;20094;-76
2023/06/21 00:23:39;;;;;;;15.57;12.90;;;19.20;99.90;;;;;;5050178;28;20163;-76
2023/06/21 00:26:05;;;;;;;15.25;12.50;;;19.20;99.90;;;;;;5050231;28;20056;-76
2023/06/21 00:28:31;;;;;;;15.43;13.73;;;19.30;99.90;;;;;;5032076;28;20049;-75
2023/06/21 00:30:56;;;;;;;16.50;12.77;;;19.20;99.90;;;;;;5050006;28;20051;-75
2023/06/21 00:33:22;;;;;;;14.50;13.00;;;19.20;99.90;;;;;;5049294;28;20084;-76
2023/06/21 00:35:48;;;;;;;14.10;12.60;;;19.10;99.90;;;;;;5048842;28;20377;-77
2023/06/21 00:38:13;;;;;;;15.73;13.07;;;19.10;99.90;;;;;;5049240;28;20110;-75
2023/06/21 00:40:39;;;;;;;17.00;14.23;;;19.10;99.90;;;;;;5031501;28;20074;-76
2023/06/21 00:43:05;;;;;;;14.85;12.85;;;19.10;99.90;;;;;;5031377;28;20037;-76
2023/06/21 00:45:40;;;;;;;15.48;13.85;;;19.10;99.90;;;;;;5049384;28;20063;-76
2023/06/21 00:48:06;;;;;;;19.30;14.48;;;19.10;99.90;;;;;;5034870;28;20128;-75
2023/06/21 00:50:32;;;;;;;16.08;13.63;;;19.10;99.90;;;;;;5034598;28;20049;-76
2023/06/21 00:52:58;;;;;;;18.38;16.25;;;19.00;99.90;;;;;;5052216;28;20066;-76
2023/06/21 00:55:24;;;;;;;17.65;15.20;;;19.00;99.90;;;;;;5034699;28;20041;-77
2023/06/21 00:57:51;;;;;;;17.23;15.23;;;19.00;99.90;;;;;;5052471;28;20037;-75
2023/06/21 01:00:23;;;;;;;19.55;14.82;;;19.00;99.90;;;;;;5034710;28;20056;-75
2023/06/21 01:02:52;;;;;;;21.73;16.30;;;19.00;99.90;;;;;;5052630;28;20044;-76
2023/06/21 01:05:21;;;;;;;18.95;16.13;;;19.00;99.90;;;;;;5052252;28;20045;-76
2023/06/21 01:07:49;;;;;;;18.65;16.05;;;19.00;99.90;;;;;;5034371;28;20400;-76
2023/06/21 01:10:30;;;;;;;20.38;16.65;;;19.00;99.90;;;;;;5026162;28;20049;-75
2023/06/21 01:13:12;;;;;;;16.90;15.02;;;19.00;99.90;;;;;;5034396;28;20060;-76
2023/06/21 01:15:49;;;;;;;17.10;15.45;;;19.00;99.90;;;;;;5052086;28;20500;-76
2023/06/21 01:18:17;;;;;;;21.63;17.25;;;19.00;99.90;;;;;;5034087;28;20057;-75
2023/06/21 01:20:51;;;;;;;20.95;18.58;;;19.00;99.90;;;;;;5034527;28;20052;-77
2023/06/21 01:23:38;;;;;;;20.48;18.15;;;19.00;99.90;;;;;;5033099;28;20100;-76
2023/06/21 01:26:22;;;;;;;23.00;17.17;;;19.00;99.90;;;;;;5052038;28;20080;-75
2023/06/21 01:29:10;;;;;;;22.70;18.13;;;19.00;99.90;;;;;;5045567;28;20128;-76
2023/06/21 01:31:39;;;;;;;21.50;17.48;;;19.00;99.90;;;;;;4991234;28;1137117;-75
2023/06/21 01:34:05;;;;;;;21.65;18.63;;;19.00;99.90;;;;;;5048646;28;20049;-76
2023/06/21 01:36:32;;;;;;;23.85;19.15;;;19.00;99.90;;;;;;5053095;28;20492;-76
2023/06/21 01:38:57;;;;;;;25.25;20.33;;;19.00;99.90;;;;;;5052963;28;20472;-76
2023/06/21 01:41:26;;;;;;;24.25;19.20;;;19.00;99.90;;;;;;5035301;28;20151;-76
2023/06/21 01:43:53;;;;;;;23.40;20.25;;;19.00;99.90;;;;;;5027374;28;20036;-76
2023/06/21 01:46:22;;;;;;;24.60;19.42;;;19.00;99.90;;;;;;5035181;28;20044;-76
2023/06/21 01:48:48;;;;;;;28.63;21.45;;;19.00;99.90;;;;;;5034849;28;20045;-76
2023/06/21 01:51:16;;;;;;;23.80;19.77;;;19.00;99.90;;;;;;5035219;28;20041;-76
2023/06/21 01:53:42;;;;;;;22.70;18.73;;;19.00;99.90;;;;;;5052497;28;20045;-76
2023/06/21 01:56:12;;;;;;;26.58;20.88;;;19.00;99.90;;;;;;5034792;28;20091;-77
2023/06/21 01:58:38;;;;;;;23.10;19.75;;;19.00;99.90;;;;;;5053019;28;20041;-77
2023/06/21 02:01:05;;;;;;;26.85;20.58;;;19.00;99.90;;;;;;5052754;28;20068;-76
2023/06/21 02:03:32;;;;;;;27.98;22.17;;;19.00;99.90;;;;;;5051266;28;20053;-76
2023/06/21 02:06:03;;;;;;;25.40;21.55;;;19.00;99.90;;;;;;5052526;28;20043;-76
2023/06/21 02:08:29;;;;;;;27.38;24.10;;;19.00;99.90;;;;;;5034310;28;20542;-77
2023/06/21 02:10:54;;;;;;;34.55;25.98;;;19.00;99.90;;;;;;5034688;28;20049;-75
2023/06/21 02:13:20;;;;;;;31.23;26.23;;;19.00;99.90;;;;;;5034728;28;20029;-75
2023/06/21 02:15:46;;;;;;;30.58;25.42;;;19.00;99.90;;;;;;5034399;28;20057;-75
2023/06/21 02:18:13;;;;;;;29.50;24.48;;;19.00;99.90;;;;;;5034587;28;20123;-76
2023/06/21 02:20:39;;;;;;;35.92;26.38;;;19.00;99.90;;;;;;5034681;28;20040;-77
2023/06/21 02:23:05;;;;;;;29.83;24.05;;;19.00;99.90;;;;;;5052638;28;20059;-76
2023/06/21 02:25:35;;;;;;;29.45;23.55;;;19.00;99.90;;;;;;5043868;28;20120;-76
2023/06/21 02:28:02;;;;;;;29.75;23.58;;;18.90;99.90;;;;;;5034524;28;20140;-76
2023/06/21 02:30:29;;;;;;;30.75;24.02;;;18.90;99.90;;;;;;5034286;28;20087;-76
2023/06/21 02:32:54;;;;;;;29.00;22.85;;;18.90;99.90;;;;;;5034191;28;20845;-77
2023/06/21 02:35:20;;;;;;;28.75;24.63;;;18.90;99.90;;;;;;5052322;28;20070;-76
2023/06/21 02:37:47;;;;;;;32.33;24.80;;;18.80;99.90;;;;;;5052063;28;20449;-76
2023/06/21 02:40:13;;;;;;;31.92;24.77;;;18.80;99.90;;;;;;5051789;28;20045;-76
2023/06/21 02:42:40;;;;;;;32.80;25.02;;;18.80;99.90;;;;;;5033782;28;20037;-76
2023/06/21 02:45:08;;;;;;;32.22;25.52;;;18.80;99.90;;;;;;5051729;28;20045;-76
2023/06/21 02:47:34;;;;;;;34.25;25.23;;;18.80;99.90;;;;;;5052018;28;20044;-77
2023/06/21 02:50:00;;;;;;;30.67;23.83;;;18.70;99.90;;;;;;5051883;28;20136;-76
2023/06/21 02:52:25;;;;;;;32.25;25.30;;;18.60;99.90;;;;;;5051900;28;20604;-75
2023/06/21 02:54:52;;;;;;;29.85;24.38;;;18.60;99.90;;;;;;5033512;28;20057;-75
2023/06/21 02:57:19;;;;;;;29.50;25.70;;;18.60;99.90;;;;;;5033408;28;20051;-76
2023/06/21 02:59:45;;;;;;;31.25;24.13;;;18.60;99.90;;;;;;5051496;28;20048;-75
2023/06/21 03:02:11;;;;;;;31.05;24.48;;;18.60;99.90;;;;;;5033798;28;20041;-76
2023/06/21 03:04:37;;;;;;;41.45;26.88;;;18.60;99.90;;;;;;5033806;28;20076;-76
2023/06/21 03:07:05;;;;;;;32.42;25.00;;;18.60;99.90;;;;;;5033744;28;20489;-75
2023/06/21 03:09:31;;;;;;;32.75;26.05;;;18.60;99.90;;;;;;5050517;28;20389;-75
2023/06/21 03:11:57;;;;;;;32.33;25.95;;;18.60;99.90;;;;;;5050845;28;20505;-76
2023/06/21 03:14:23;;;;;;;35.42;28.30;;;18.60;99.90;;;;;;5051356;28;20044;-76
2023/06/21 03:16:49;;;;;;;34.25;27.83;;;18.60;99.90;;;;;;5017088;28;20041;-74
2023/06/21 03:19:15;;;;;;;33.40;26.65;;;18.60;99.90;;;;;;5033424;28;20045;-76
2023/06/21 03:21:41;;;;;;;36.75;27.25;;;18.60;99.90;;;;;;5051296;28;20037;-76
2023/06/21 03:24:07;;;;;;;33.42;27.30;;;18.60;99.90;;;;;;5051101;28;20076;-75
2023/06/21 03:26:35;;;;;;;35.22;28.27;;;18.50;99.90;;;;;;5041428;28;20480;-75
2023/06/21 03:29:02;;;;;;;36.42;29.63;;;18.50;99.90;;;;;;5033106;28;20056;-76
2023/06/21 03:31:28;;;;;;;36.63;30.10;;;18.40;99.90;;;;;;5032568;28;20557;-75
2023/06/21 03:33:54;;;;;;;42.92;31.75;;;18.50;99.90;;;;;;5051003;28;20056;-76
2023/06/21 03:36:20;;;;;;;39.88;30.65;;;18.40;99.90;;;;;;5050665;28;20491;-75
2023/06/21 03:38:45;;;;;;;41.28;32.00;;;18.50;99.90;;;;;;5033134;28;20076;-76
2023/06/21 03:41:12;;;;;;;41.22;31.15;;;18.40;99.90;;;;;;5050616;28;20033;-76
2023/06/21 03:43:37;;;;;;;36.67;29.38;;;18.40;99.90;;;;;;5032759;28;20056;-77
2023/06/21 03:46:03;;;;;;;36.88;30.77;;;18.40;99.90;;;;;;5050608;28;20037;-76
2023/06/21 03:48:29;;;;;;;38.78;30.88;;;18.40;99.90;;;;;;5050610;28;20397;-76
2023/06/21 03:50:54;;;;;;;37.53;31.10;;;18.40;99.90;;;;;;5050657;28;20064;-75
2023/06/21 03:53:20;;;;;;;43.50;33.35;;;18.30;99.90;;;;;;5050436;28;20044;-76
2023/06/21 03:55:46;;;;;;;39.78;32.42;;;18.40;99.90;;;;;;5050528;28;20250;-75
2023/06/21 03:58:12;;;;;;;41.22;34.05;;;18.40;99.90;;;;;;5032551;28;20041;-76
2023/06/21 04:00:38;;;;;;;48.78;34.90;;;18.40;99.90;;;;;;5032491;28;20084;-76
2023/06/21 04:03:04;;;;;;;41.05;33.60;;;18.40;99.90;;;;;;5032425;28;20135;-77
2023/06/21 04:05:29;;;;;;;53.25;36.58;;;18.40;99.90;;;;;;5050662;28;20112;-76
2023/06/21 04:07:55;;;;;;;48.72;35.50;;;18.40;99.90;;;;;;5032571;28;20535;-76
2023/06/21 04:10:21;;;;;;;44.75;34.65;;;18.40;99.90;;;;;;5050604;28;20045;-75
2023/06/21 04:12:47;;;;;;;46.40;35.55;;;18.40;99.90;;;;;;5032771;28;20049;-75
2023/06/21 04:15:12;;;;;;;43.33;33.85;;;18.40;99.90;;;;;;5032646;28;20493;-76
2023/06/21 04:17:38;;;;;;;47.58;35.97;;;18.50;99.90;;;;;;5050217;28;20049;-76
2023/06/21 04:20:10;;;;;;;47.75;35.15;;;18.50;99.90;;;;;;5032066;28;20048;-77
2023/06/21 04:22:40;;;;;;;50.45;36.65;;;18.50;99.90;;;;;;5050436;28;20049;-76
2023/06/21 04:25:07;;;;;;;48.30;36.42;;;18.50;99.90;;;;;;5032618;28;20392;-77
2023/06/21 04:27:33;;;;;;;54.33;36.65;;;18.60;99.90;;;;;;5007199;28;20099;-75
2023/06/21 04:29:59;;;;;;;49.20;35.55;;;18.50;99.90;;;;;;5050068;28;20109;-77
2023/06/21 04:32:25;;;;;;;59.20;36.95;;;18.50;99.90;;;;;;5049888;28;20079;-75
2023/06/21 04:34:51;;;;;;;44.88;32.65;;;18.50;99.90;;;;;;5015674;28;20485;-76
2023/06/21 04:37:18;;;;;;;44.58;32.88;;;18.50;99.90;;;;;;5032354;28;20136;-76
2023/06/21 04:39:44;;;;;;;40.90;29.80;;;18.60;99.90;;;;;;5050150;28;20091;-76
2023/06/21 04:42:10;;;;;;;41.15;30.63;;;18.60;99.90;;;;;;5032118;28;20045;-76
2023/06/21 04:44:35;;;;;;;38.17;28.27;;;18.50;99.90;;;;;;5049791;28;20084;-77
2023/06/21 04:47:01;;;;;;;39.97;27.50;;;18.60;99.90;;;;;;5032259;28;20048;-74
2023/06/21 04:49:27;;;;;;;42.50;27.00;;;18.50;99.90;;;;;;5050134;28;20040;-75
2023/06/21 04:51:57;;;;;;;38.45;27.80;;;18.50;99.90;;;;;;5050101;28;20448;-76
2023/06/21 04:54:26;;;;;;;37.85;26.38;;;18.60;99.90;;;;;;5015344;28;20057;-77
2023/06/21 04:56:52;;;;;;;44.78;25.88;;;18.50;99.90;;;;;;5031903;28;20056;-76
2023/06/21 04:59:18;;;;;;;39.17;25.08;;;18.50;99.90;;;;;;5031712;28;20045;-75
2023/06/21 05:01:45;;;;;;;36.58;25.08;;;18.60;99.90;;;;;;5049710;28;20124;-73
2023/06/21 05:04:11;;;;;;;32.45;22.95;;;18.60;99.90;;;;;;5049967;28;20045;-75
2023/06/21 05:06:36;;;;;;;34.28;24.15;;;18.60;99.90;;;;;;5032229;28;20519;-76
2023/06/21 05:09:04;;;;;;;35.72;24.85;;;18.60;99.90;;;;;;5031623;28;20175;-76
2023/06/21 05:11:29;;;;;;;37.30;23.52;;;18.60;99.90;;;;;;5048473;28;20048;-75
2023/06/21 05:13:55;;;;;;;32.50;23.88;;;18.60;99.90;;;;;;5031860;28;20053;-75
2023/06/21 05:16:21;;;;;;;31.85;22.08;;;18.70;99.90;;;;;;5031663;28;20041;-78
2023/06/21 05:18:46;;;;;;;36.40;23.08;;;18.70;99.90;;;;;;5049984;28;20049;-76
2023/06/21 05:21:12;;;;;;;39.75;22.92;;;18.70;99.90;;;;;;5031864;28;20045;-75
2023/06/21 05:23:38;;;;;;;32.97;21.92;;;18.70;99.90;;;;;;5049572;28;20040;-75
2023/06/21 05:26:03;;;;;;;31.42;21.55;;;18.80;99.90;;;;;;5049727;28;20040;-75
2023/06/21 05:28:29;;;;;;;37.15;21.40;;;18.80;99.90;;;;;;5031476;28;20052;-75
2023/06/21 05:30:54;;;;;;;31.35;20.90;;;18.80;99.90;;;;;;5031633;28;20140;-75
2023/06/21 05:33:20;;;;;;;34.45;20.42;;;18.80;99.90;;;;;;5052414;28;20086;-76
2023/06/21 05:35:46;;;;;;;32.28;21.35;;;18.90;99.90;;;;;;5035172;28;20110;-76
2023/06/21 05:38:11;;;;;;;33.33;19.83;;;18.90;99.90;;;;;;5035310;28;20051;-75
2023/06/21 05:40:37;;;;;;;29.08;19.42;;;19.00;99.90;;;;;;5034650;28;20057;-76
2023/06/21 05:43:04;;;;;;;28.08;18.83;;;19.00;99.90;;;;;;5035327;28;20571;-76
2023/06/21 05:45:30;;;;;;;29.80;18.90;;;19.00;99.90;;;;;;5052531;28;20366;-76
2023/06/21 05:47:57;;;;;;;28.67;18.20;;;19.10;99.90;;;;;;5052937;28;20095;-75
2023/06/21 05:50:23;;;;;;;29.83;18.05;;;19.10;99.90;;;;;;5035444;28;20087;-75
2023/06/21 05:52:49;;;;;;;26.98;15.63;;;19.10;99.90;;;;;;5034861;28;20091;-76
2023/06/21 05:55:14;;;;;;;26.80;17.15;;;19.10;99.90;;;;;;5052895;28;20056;-76
2023/06/21 05:57:40;;;;;;;27.90;15.88;;;19.20;99.90;;;;;;5034647;28;20408;-76
2023/06/21 06:00:09;;;;;;;28.70;16.27;;;19.20;99.90;;;;;;5034726;28;20091;-76
2023/06/21 06:02:35;;;;;;;32.78;15.77;;;19.30;99.90;;;;;;5034684;28;20507;-76
2023/06/21 06:05:01;;;;;;;23.80;14.85;;;19.30;99.90;;;;;;5034619;28;20044;-77
2023/06/21 06:07:27;;;;;;;28.02;15.27;;;19.30;99.90;;;;;;5017623;28;20052;-76
2023/06/21 06:09:52;;;;;;;25.17;15.20;;;19.40;99.90;;;;;;5034982;28;20044;-76
2023/06/21 06:12:21;;;;;;;22.98;14.10;;;19.40;99.90;;;;;;5052584;28;20488;-75
2023/06/21 06:14:47;;;;;;;22.98;14.75;;;19.40;99.90;;;;;;5052375;28;20056;-75
2023/06/21 06:17:13;;;;;;;25.88;15.70;;;19.50;99.90;;;;;;5052214;28;20049;-76
2023/06/21 06:19:39;;;;;;;23.98;14.93;;;19.50;99.90;;;;;;5034306;28;20048;-77
2023/06/21 06:22:04;;;;;;;26.20;15.10;;;19.60;99.90;;;;;;5052555;28;20056;-76
2023/06/21 06:24:30;;;;;;;24.52;15.00;;;19.70;99.90;;;;;;5034374;28;20045;-76
2023/06/21 06:26:56;;;;;;;23.98;15.35;;;19.80;99.90;;;;;;5034123;28;20076;-76
2023/06/21 06:29:22;;;;;;;19.98;14.23;;;19.80;99.90;;;;;;5050907;28;20091;-76
2023/06/21 06:31:48;;;;;;;25.83;14.68;;;19.90;99.90;;;;;;5033892;28;20060;-75
2023/06/21 06:34:14;;;;;;;22.30;14.50;;;20.00;99.90;;;;;;5051869;28;20064;-76
2023/06/21 06:36:40;;;;;;;21.20;13.82;;;20.10;99.90;;;;;;5052301;28;20686;-75
2023/06/21 06:39:06;;;;;;;18.50;12.57;;;20.30;99.90;;;;;;5052505;28;20045;-75
2023/06/21 06:41:32;;;;;;;21.17;13.18;;;20.40;99.90;;;;;;5052044;28;20048;-75
2023/06/21 06:43:58;;;;;;;24.88;13.13;;;20.60;99.90;;;;;;5033257;28;20388;-75
2023/06/21 06:46:23;;;;;;;17.67;13.23;;;20.70;99.90;;;;;;5017261;28;20045;-75
2023/06/21 06:48:49;;;;;;;17.60;12.45;;;20.80;99.90;;;;;;5051755;28;20057;-75
2023/06/21 06:51:15;;;;;;;19.52;12.35;;;20.90;99.90;;;;;;5051889;28;20041;-76
2023/06/21 06:53:41;;;;;;;19.95;10.95;;;21.00;99.90;;;;;;5033692;28;20140;-76
2023/06/21 06:56:07;;;;;;;16.67;10.73;;;21.20;99.90;;;;;;5033542;28;20156;-74
2023/06/21 06:58:35;;;;;;;16.20;11.23;;;21.30;99.90;;;;;;5051726;28;20118;-76
2023/06/21 07:01:05;;;;;;;18.50;11.02;;;21.40;99.90;;;;;;5051528;28;20084;-75
2023/06/21 07:03:34;;;;;;;17.38;11.15;;;21.50;99.90;;;;;;5051328;28;20053;-77
2023/06/21 07:06:00;;;;;;;15.73;9.88;;;21.60;99.90;;;;;;5033896;28;20045;-75
2023/06/21 07:08:25;;;;;;;18.10;10.25;;;21.60;99.90;;;;;;5033651;28;20373;-75
2023/06/21 07:10:52;;;;;;;15.65;10.02;;;21.60;99.90;;;;;;5033779;28;20143;-78
2023/06/21 07:13:18;;;;;;;20.60;11.73;;;21.90;99.90;;;;;;5033400;28;20040;-75
2023/06/21 07:15:44;;;;;;;18.50;10.50;;;22.00;99.90;;;;;;5033738;28;20049;-75
2023/06/21 07:18:11;;;;;;;17.23;10.75;;;21.90;99.90;;;;;;5033073;28;20049;-77
2023/06/21 07:20:37;;;;;;;14.93;9.63;;;22.00;99.90;;;;;;5051563;28;20049;-76
2023/06/21 07:23:02;;;;;;;15.10;9.95;;;22.20;99.90;;;;;;5033162;28;20049;-75
2023/06/21 07:25:28;;;;;;;13.40;9.82;;;22.20;99.90;;;;;;5051064;28;20040;-76
2023/06/21 07:27:54;;;;;;;14.98;9.32;;;22.30;99.90;;;;;;5050924;28;20037;-76
2023/06/21 07:30:22;;;;;;;14.05;9.20;;;22.40;99.90;;;;;;5032888;28;20049;-78
2023/06/21 07:32:48;;;;;;;13.85;8.90;;;22.50;99.90;;;;;;5050430;28;20140;-76
2023/06/21 07:35:14;;;;;;;11.65;8.52;;;22.40;99.90;;;;;;5032969;28;20061;-76
2023/06/21 07:37:45;;;;;;;15.35;9.48;;;22.50;99.90;;;;;;5033005;28;20106;-75
2023/06/21 07:40:11;;;;;;;14.13;9.50;;;22.50;99.90;;;;;;5032835;28;20056;-74
2023/06/21 07:42:38;;;;;;;12.18;7.97;;;22.50;99.90;;;;;;5050817;28;20068;-76
2023/06/21 07:45:05;;;;;;;14.00;8.50;;;22.70;99.90;;;;;;5032856;28;20080;-75
2023/06/21 07:47:31;;;;;;;13.13;7.57;;;22.80;99.90;;;;;;5050376;28;20041;-75
2023/06/21 07:49:57;;;;;;;18.08;7.55;;;22.80;99.90;;;;;;5050668;28;20040;-76
2023/06/21 07:52:22;;;;;;;18.20;8.13;;;22.90;99.90;;;;;;5050678;28;20112;-76
2023/06/21 07:54:49;;;;;;;12.13;7.63;;;23.00;99.90;;;;;;5050337;28;20049;-76
2023/06/21 07:57:18;;;;;;;14.38;8.00;;;23.10;99.90;;;;;;5032770;28;20439;-77
2023/06/21 07:59:45;;;;;;;14.45;7.70;;;23.10;99.90;;;;;;5050544;28;20041;-76
2023/06/21 08:02:12;;;;;;;10.35;7.97;;;23.30;99.90;;;;;;5050364;28;20048;-78
2023/06/21 08:04:38;;;;;;;12.77;7.47;;;23.40;99.90;;;;;;5049954;28;20084;-76
2023/06/21 08:07:04;;;;;;;10.30;6.68;;;23.50;99.90;;;;;;5050525;28;20099;-76
2023/06/21 08:09:29;;;;;;;12.35;7.22;;;23.50;99.90;;;;;;5050441;28;20041;-76
2023/06/21 08:11:55;;;;;;;9.63;6.40;;;23.50;99.90;;;;;;5050402;28;20091;-75
2023/06/21 08:14:21;;;;;;;10.45;6.80;;;23.60;99.90;;;;;;5050298;28;20051;-74
2023/06/21 08:16:46;;;;;;;12.05;6.68;;;23.60;99.90;;;;;;5050420;28;20056;-74
2023/06/21 08:19:12;;;;;;;11.18;6.82;;;23.60;99.90;;;;;;5049925;28;20075;-77
2023/06/21 08:21:39;;;;;;;11.38;6.28;;;23.50;99.90;;;;;;5050188;28;20064;-75
2023/06/21 08:24:05;;;;;;;8.82;6.05;;;23.60;99.90;;;;;;5050330;28;20045;-73
2023/06/21 08:26:31;;;;;;;11.45;6.82;;;23.70;99.90;;;;;;5032446;28;20099;-76
2023/06/21 08:28:56;;;;;;;13.98;7.22;;;23.90;99.90;;;;;;5050146;28;20045;-75
2023/06/21 08:31:22;;;;;;;13.35;6.18;;;24.00;99.90;;;;;;5032191;28;20396;-75
2023/06/21 08:33:47;;;;;;;10.20;6.90;;;24.00;99.90;;;;;;5049540;28;20446;-75
2023/06/21 08:36:13;;;;;;;13.00;6.78;;;24.00;99.90;;;;;;5032089;28;20175;-77
2023/06/21 08:38:39;;;;;;;8.98;6.63;;;24.10;99.90;;;;;;5049873;28;20044;-76
2023/06/21 08:41:05;;;;;;;11.82;7.30;;;24.20;99.90;;;;;;5015527;28;20060;-76
2023/06/21 08:43:31;;;;;;;9.82;6.80;;;24.20;99.90;;;;;;5032135;28;20049;-76
2023/06/21 08:45:57;;;;;;;12.82;7.22;;;24.50;99.90;;;;;;5032252;28;20049;-76
2023/06/21 08:48:27;;;;;;;11.25;6.40;;;24.50;99.90;;;;;;5031717;28;20056;-76
2023/06/21 08:50:54;;;;;;;14.60;7.15;;;24.60;99.90;;;;;;5032102;28;20118;-77
2023/06/21 08:53:36;;;;;;;8.93;6.40;;;24.60;99.90;;;;;;5032150;28;20407;-76
2023/06/21 08:56:05;;;;;;;9.60;6.78;;;24.70;99.90;;;;;;5024062;28;20068;-76
2023/06/21 08:58:42;;;;;;;9.88;6.65;;;24.70;99.90;;;;;;5040859;23;20050;-76
2023/06/21 09:01:10;;;;;;;10.70;6.55;;;24.70;99.90;;;;;;5026438;28;20515;-77
2023/06/21 09:03:49;;;;;;;10.68;6.13;;;24.90;99.90;;;;;;4995771;28;20461;-77
2023/06/21 09:06:19;;;;;;;7.68;5.72;;;24.90;99.90;;;;;;5004808;28;20084;-76
2023/06/21 09:08:47;;;;;;;8.95;6.05;;;25.10;99.90;;;;;;5000135;28;20060;-77
2023/06/21 09:11:16;;;;;;;9.55;6.30;;;25.10;99.90;;;;;;4999422;28;20049;-77
2023/06/21 09:13:44;;;;;;;8.57;5.72;;;25.30;99.90;;;;;;5016363;28;20049;-76
2023/06/21 09:16:12;;;;;;;7.40;5.40;;;25.40;99.90;;;;;;5015796;28;20107;-75
2023/06/21 09:18:39;;;;;;;9.00;4.55;;;25.40;99.90;;;;;;5033869;28;20042;-77
2023/06/21 09:21:08;;;;;;;6.57;4.15;;;25.50;99.90;;;;;;5033414;28;20041;-76
2023/06/21 09:23:35;;;;;;;5.95;3.80;;;25.60;99.90;;;;;;5033733;28;20042;-76
2023/06/21 09:26:02;;;;;;;9.13;5.00;;;25.50;99.90;;;;;;5033942;28;20095;-77
2023/06/21 09:28:28;;;;;;;12.10;5.25;;;25.60;99.90;;;;;;5015797;28;20061;-76
2023/06/21 09:30:54;;;;;;;6.43;4.15;;;25.60;99.90;;;;;;4998824;28;20068;-77
2023/06/21 09:33:20;;;;;;;7.53;3.60;;;25.80;99.90;;;;;;5015447;28;20409;-76
2023/06/21 09:35:46;;;;;;;5.28;3.70;;;26.00;99.90;;;;;;5015953;28;20125;-77
2023/06/21 09:38:26;;;;;;;7.38;3.70;;;25.90;99.90;;;;;;5015612;28;20049;-77
2023/06/21 09:40:52;;;;;;;5.90;2.90;;;26.00;99.90;;;;;;4992052;28;20437;-76
2023/06/21 09:43:21;;;;;;;6.95;3.38;;;26.20;99.90;;;;;;5033016;28;20128;-76
2023/06/21 09:46:07;;;;;;;6.05;4.32;;;26.20;99.90;;;;;;4998642;28;20056;-76
2023/06/21 09:48:34;;;;;;;6.13;3.90;;;25.90;99.90;;;;;;5015336;28;20181;-75
2023/06/21 09:51:04;;;;;;;5.78;4.20;;;26.20;99.90;;;;;;5033054;28;20056;-77
2023/06/21 09:53:30;;;;;;;7.28;4.20;;;26.00;99.90;;;;;;5032981;28;20049;-77
2023/06/21 09:55:56;;;;;;;5.72;3.78;;;25.90;99.90;;;;;;5033054;28;20049;-76
2023/06/21 09:58:23;;;;;;;6.03;3.70;;;25.70;99.90;;;;;;5032805;28;20505;-77
2023/06/21 10:00:48;;;;;;;8.50;4.07;;;25.70;99.90;;;;;;5014674;28;20085;-75
2023/06/21 10:03:14;;;;;;;6.72;4.32;;;25.40;99.90;;;;;;5014929;28;20134;-77
2023/06/21 10:06:03;;;;;;;11.80;4.70;;;25.40;99.90;;;;;;5032781;28;20361;-78
2023/06/21 10:08:33;;;;;;;5.53;3.83;;;25.20;99.90;;;;;;4965141;28;20071;-76
2023/06/21 10:11:01;;;;;;;6.82;3.55;;;25.40;99.90;;;;;;4971220;28;20067;-76
2023/06/21 10:13:32;;;;;;;6.85;3.58;;;25.50;99.90;;;;;;4955271;28;20055;-77
2023/06/21 10:16:00;;;;;;;6.05;3.85;;;25.70;99.90;;;;;;4955108;28;20074;-76
2023/06/21 10:18:26;;;;;;;6.82;3.95;;;25.60;99.90;;;;;;4954907;28;20057;-77
2023/06/21 10:20:56;;;;;;;6.45;3.25;;;25.70;99.90;;;;;;4971210;28;20059;-76
2023/06/21 10:23:28;;;;;;;7.63;4.38;;;25.90;99.90;;;;;;4970823;28;20121;-77
2023/06/21 10:25:59;;;;;;;5.63;3.58;;;26.10;99.90;;;;;;4971014;28;20059;-77
2023/06/21 10:28:28;;;;;;;6.05;3.50;;;26.20;99.90;;;;;;4970981;28;20050;-77
2023/06/21 10:30:58;;;;;;;7.38;3.75;;;26.30;99.90;;;;;;4971080;28;20503;-76
2023/06/21 10:33:26;;;;;;;6.55;3.85;;;26.20;99.90;;;;;;4970803;28;20055;-76
2023/06/21 10:35:56;;;;;;;8.32;3.38;;;26.20;99.90;;;;;;4954854;28;20051;-76
2023/06/21 10:38:37;;;;;;;8.57;3.90;;;26.10;99.90;;;;;;4970501;28;20063;-76
2023/06/21 10:41:04;;;;;;;8.02;4.18;;;26.00;99.90;;;;;;4970743;28;20042;-77
2023/06/21 10:43:31;;;;;;;6.85;3.80;;;25.70;99.90;;;;;;4970752;28;20043;-77
2023/06/21 10:45:57;;;;;;;6.50;3.67;;;25.70;99.90;;;;;;5013075;28;20057;-76
2023/06/21 10:48:25;;;;;;;6.22;4.05;;;25.70;99.90;;;;;;5014199;28;20055;-77
2023/06/21 10:50:51;;;;;;;5.88;3.90;;;25.60;99.90;;;;;;5031977;28;20086;-76
2023/06/21 10:53:18;;;;;;;5.68;3.40;;;25.60;99.90;;;;;;5031689;28;20389;-75
2023/06/21 10:55:46;;;;;;;4.97;4.00;;;25.70;99.90;;;;;;5031961;28;20132;-76
2023/06/21 10:58:13;;;;;;;5.45;3.53;;;26.00;99.90;;;;;;5031695;28;20041;-77
2023/06/21 11:00:42;;;;;;;8.55;4.28;;;26.10;99.90;;;;;;5013785;28;20456;-77
2023/06/21 11:03:12;;;;;;;7.30;3.78;;;25.90;99.90;;;;;;5022218;28;20038;-77
2023/06/21 11:05:39;;;;;;;8.52;3.97;;;25.80;99.90;;;;;;5014017;28;20037;-77
2023/06/21 11:08:06;;;;;;;5.47;3.47;;;25.70;99.90;;;;;;5013805;28;20454;-76
2023/06/21 11:10:49;;;;;;;6.80;3.42;;;25.60;99.90;;;;;;5013990;28;20085;-77
2023/06/21 11:13:16;;;;;;;5.40;2.70;;;25.50;99.90;;;;;;5031589;28;20053;-76
2023/06/21 11:15:46;;;;;;;5.82;2.80;;;25.40;99.90;;;;;;5013768;28;20050;-77
2023/06/21 11:18:19;;;;;;;4.75;2.65;;;25.40;99.90;;;;;;5031397;28;20041;-76
2023/06/21 11:20:56;;;;;;;6.65;2.50;;;25.60;99.90;;;;;;5013593;28;20836;-79
2023/06/21 11:23:23;;;;;;;5.25;2.50;;;25.60;99.90;;;;;;5013321;28;20511;-77
2023/06/21 11:25:50;;;;;;;6.18;2.88;;;25.60;99.90;;;;;;5013443;28;20046;-77
2023/06/21 11:28:19;;;;;;;8.73;4.15;;;25.40;99.90;;;;;;5013193;28;20191;-76
2023/06/21 11:31:07;;;;;;;7.03;4.43;;;25.50;99.90;;;;;;5030651;28;20497;-77
2023/06/21 11:33:54;;;;;;;9.07;4.13;;;25.40;99.90;;;;;;5031159;28;20417;-77
2023/06/21 11:36:26;;;;;;;6.80;3.95;;;25.40;99.90;;;;;;4996821;28;20490;-78
2023/06/21 11:38:58;;;;;;;5.65;3.20;;;25.40;99.90;;;;;;5030479;22;20057;-77
2023/06/21 11:41:42;;;;;;;8.88;3.50;;;25.80;99.90;;;;;;4984694;28;20057;-77
2023/06/21 11:44:10;;;;;;;6.05;3.10;;;26.10;99.90;;;;;;4982517;28;20046;-77
2023/06/21 11:46:36;;;;;;;7.05;3.08;;;26.00;99.90;;;;;;4967567;28;20054;-77
2023/06/21 11:49:03;;;;;;;5.25;2.97;;;26.00;99.90;;;;;;4968643;28;20050;-76
2023/06/21 11:51:30;;;;;;;6.68;3.30;;;26.20;99.90;;;;;;5002725;28;20096;-80
2023/06/21 11:53:56;;;;;;;5.90;3.42;;;26.40;99.90;;;;;;4999616;28;20030;-77
2023/06/21 11:56:22;;;;;;;5.82;3.00;;;26.40;99.90;;;;;;5005736;28;20078;-78
2023/06/21 11:58:52;;;;;;;5.38;3.20;;;26.50;99.90;;;;;;5001577;28;20069;-79
2023/06/21 12:01:18;;;;;;;7.15;2.97;;;26.40;99.90;;;;;;4965788;28;20142;-78
2023/06/21 12:03:43;;;;;;;5.78;3.60;;;26.50;99.90;;;;;;4999475;28;20133;-77
2023/06/21 12:06:09;;;;;;;5.68;3.65;;;26.60;99.90;;;;;;4984852;28;20050;-77
2023/06/21 12:08:36;;;;;;;6.15;3.15;;;26.70;99.90;;;;;;5002401;28;20049;-78
2023/06/21 12:11:07;;;;;;;6.65;2.80;;;26.90;99.90;;;;;;4983093;28;20046;-77
2023/06/21 12:13:34;;;;;;;6.28;2.72;;;26.90;99.90;;;;;;4965941;28;20512;-77
2023/06/21 12:16:05;;;;;;;7.65;3.13;;;27.00;99.90;;;;;;4982360;28;20103;-76
2023/06/21 12:18:36;;;;;;;4.53;2.58;;;26.70;99.90;;;;;;4968887;28;20437;-77
2023/06/21 12:21:03;;;;;;;4.68;2.25;;;26.90;99.90;;;;;;4985125;28;20053;-76
2023/06/21 12:23:30;;;;;;;3.22;2.25;;;26.70;99.90;;;;;;4982152;28;20058;-77
2023/06/21 12:26:01;;;;;;;5.32;2.33;;;26.90;99.90;;;;;;4999212;28;20166;-76
2023/06/21 12:28:27;;;;;;;5.65;2.50;;;27.00;99.90;;;;;;5001511;28;20579;-76
2023/06/21 12:30:59;;;;;;;8.23;2.85;;;27.10;99.90;;;;;;4984598;28;20125;-76
2023/06/21 12:33:43;;;;;;;4.07;2.63;;;27.00;99.90;;;;;;4966050;28;20058;-76
2023/06/21 12:36:21;;;;;;;4.28;2.90;;;26.90;99.90;;;;;;4999407;28;20054;-76